sensor_id;sensor_type;location;lat;lon;timestamp;P1;durP1;ratioP1;P2;durP2;ratioP2
53775;SDS011;44276;49.534;6.378;2024-01-15T00:01:14;34.15;;;8.82;;
53775;SDS011;44276;49.534;6.378;2024-01-15T00:03:42;28.63;;;10.30;;
53775;SDS011;44276;49.534;6.378;2024-01-15T00:06:13;27.88;;;7.82;;
53775;SDS011;44276;49.534;6.378;2024-01-15T00:08:41;22.85;;;7.93;;
53775;SDS011;44276;49.534;6.378;2024-01-15T00:11:10;25.13;;;8.20;;
53775;SDS011;44276;49.534;6.378;2024-01-15T00:13:38;30.95;;;8.80;;
53775;SDS011;44276;49.534;6.378;2024-01-15T00:16:06;25.88;;;8.85;;
53775;SDS011;44276;49.534;6.378;2024-01-15T00:18:36;31.90;;;8.63;;
53775;SDS011;44276;49.534;6.378;2024-01-15T00:21:05;28.33;;;8.32;;
53775;SDS011;44276;49.534;6.378;2024-01-15T00:23:33;32.63;;;9.85;;
53775;SDS011;44276;49.534;6.378;2024-01-15T00:26:01;33.42;;;9.30;;
53775;SDS011;44276;49.534;6.378;2024-01-15T00:28:33;42.05;;;10.52;;
53775;SDS011;44276;49.534;6.378;2024-01-15T00:31:01;32.40;;;10.85;;
53775;SDS011;44276;49.534;6.378;2024-01-15T00:33:30;31.65;;;9.68;;
53775;SDS011;44276;49.534;6.378;2024-01-15T00:36:00;37.20;;;10.43;;
53775;SDS011;44276;49.534;6.378;2024-01-15T00:38:29;37.58;;;11.88;;
53775;SDS011;44276;49.534;6.378;2024-01-15T00:40:57;23.77;;;8.18;;
53775;SDS011;44276;49.534;6.378;2024-01-15T00:43:25;33.13;;;9.85;;
53775;SDS011;44276;49.534;6.378;2024-01-15T00:45:54;40.83;;;9.75;;
53775;SDS011;44276;49.534;6.378;2024-01-15T00:48:22;52.85;;;13.25;;
53775;SDS011;44276;49.534;6.378;2024-01-15T00:50:50;28.75;;;9.15;;
53775;SDS011;44276;49.534;6.378;2024-01-15T00:53:22;35.53;;;10.13;;
53775;SDS011;44276;49.534;6.378;2024-01-15T00:55:50;29.15;;;8.98;;
53775;SDS011;44276;49.534;6.378;2024-01-15T00:58:18;30.17;;;8.70;;
53775;SDS011;44276;49.534;6.378;2024-01-15T01:00:46;46.35;;;12.40;;
53775;SDS011;44276;49.534;6.378;2024-01-15T01:03:15;38.00;;;9.88;;
53775;SDS011;44276;49.534;6.378;2024-01-15T01:05:43;29.13;;;9.18;;
53775;SDS011;44276;49.534;6.378;2024-01-15T01:08:12;38.22;;;10.10;;
53775;SDS011;44276;49.534;6.378;2024-01-15T01:10:42;36.63;;;9.68;;
53775;SDS011;44276;49.534;6.378;2024-01-15T01:13:10;32.60;;;12.05;;
53775;SDS011;44276;49.534;6.378;2024-01-15T01:15:38;31.00;;;10.18;;
53775;SDS011;44276;49.534;6.378;2024-01-15T01:18:07;38.28;;;11.15;;
53775;SDS011;44276;49.534;6.378;2024-01-15T01:20:35;30.92;;;9.07;;
53775;SDS011;44276;49.534;6.378;2024-01-15T01:23:04;44.83;;;12.68;;
53775;SDS011;44276;49.534;6.378;2024-01-15T01:25:32;30.73;;;9.00;;
53775;SDS011;44276;49.534;6.378;2024-01-15T01:28:02;35.78;;;11.18;;
53775;SDS011;44276;49.534;6.378;2024-01-15T01:30:31;28.50;;;11.02;;
53775;SDS011;44276;49.534;6.378;2024-01-15T01:32:59;34.33;;;11.95;;
53775;SDS011;44276;49.534;6.378;2024-01-15T01:35:27;37.38;;;9.98;;
53775;SDS011;44276;49.534;6.378;2024-01-15T01:37:56;42.55;;;9.80;;
53775;SDS011;44276;49.534;6.378;2024-01-15T01:40:24;35.17;;;10.63;;
53775;SDS011;44276;49.534;6.378;2024-01-15T01:42:52;29.88;;;7.88;;
53775;SDS011;44276;49.534;6.378;2024-01-15T01:45:22;44.47;;;11.40;;
53775;SDS011;44276;49.534;6.378;2024-01-15T01:47:50;27.35;;;11.05;;
53775;SDS011;44276;49.534;6.378;2024-01-15T01:50:19;27.55;;;11.40;;
53775;SDS011;44276;49.534;6.378;2024-01-15T01:52:48;36.95;;;11.90;;
53775;SDS011;44276;49.534;6.378;2024-01-15T01:55:17;27.73;;;11.05;;
53775;SDS011;44276;49.534;6.378;2024-01-15T01:57:48;30.63;;;11.00;;
53775;SDS011;44276;49.534;6.378;2024-01-15T02:00:17;23.90;;;9.60;;
53775;SDS011;44276;49.534;6.378;2024-01-15T02:02:47;27.73;;;10.05;;
53775;SDS011;44276;49.534;6.378;2024-01-15T02:05:17;38.03;;;12.10;;
53775;SDS011;44276;49.534;6.378;2024-01-15T02:07:48;24.67;;;9.75;;
53775;SDS011;44276;49.534;6.378;2024-01-15T02:10:17;35.25;;;10.52;;
53775;SDS011;44276;49.534;6.378;2024-01-15T02:12:45;42.60;;;11.20;;
53775;SDS011;44276;49.534;6.378;2024-01-15T02:15:15;41.92;;;11.10;;
53775;SDS011;44276;49.534;6.378;2024-01-15T02:20:35;31.80;;;10.65;;
53775;SDS011;44276;49.534;6.378;2024-01-15T02:23:07;47.08;;;12.50;;
53775;SDS011;44276;49.534;6.378;2024-01-15T02:25:37;32.97;;;11.40;;
53775;SDS011;44276;49.534;6.378;2024-01-15T02:28:08;45.90;;;14.00;;
53775;SDS011;44276;49.534;6.378;2024-01-15T02:30:39;41.42;;;13.20;;
53775;SDS011;44276;49.534;6.378;2024-01-15T02:33:09;40.05;;;13.50;;
53775;SDS011;44276;49.534;6.378;2024-01-15T02:35:39;41.75;;;13.02;;
53775;SDS011;44276;49.534;6.378;2024-01-15T02:38:09;34.28;;;11.48;;
53775;SDS011;44276;49.534;6.378;2024-01-15T02:40:37;30.02;;;11.88;;
53775;SDS011;44276;49.534;6.378;2024-01-15T02:43:06;39.17;;;13.13;;
53775;SDS011;44276;49.534;6.378;2024-01-15T02:45:34;38.80;;;13.93;;
53775;SDS011;44276;49.534;6.378;2024-01-15T02:48:03;41.15;;;13.02;;
53775;SDS011;44276;49.534;6.378;2024-01-15T02:50:32;41.25;;;12.82;;
53775;SDS011;44276;49.534;6.378;2024-01-15T02:53:00;36.70;;;11.20;;
53775;SDS011;44276;49.534;6.378;2024-01-15T02:55:30;43.28;;;13.77;;
53775;SDS011;44276;49.534;6.378;2024-01-15T02:57:58;33.90;;;11.45;;
53775;SDS011;44276;49.534;6.378;2024-01-15T03:00:27;47.50;;;13.43;;
53775;SDS011;44276;49.534;6.378;2024-01-15T03:02:55;44.45;;;13.05;;
53775;SDS011;44276;49.534;6.378;2024-01-15T03:05:24;44.30;;;14.13;;
53775;SDS011;44276;49.534;6.378;2024-01-15T03:07:52;34.67;;;13.18;;
53775;SDS011;44276;49.534;6.378;2024-01-15T03:10:20;31.48;;;12.60;;
53775;SDS011;44276;49.534;6.378;2024-01-15T03:12:50;40.92;;;11.38;;
53775;SDS011;44276;49.534;6.378;2024-01-15T03:15:18;42.55;;;13.10;;
53775;SDS011;44276;49.534;6.378;2024-01-15T03:17:46;42.60;;;11.50;;
53775;SDS011;44276;49.534;6.378;2024-01-15T03:20:15;34.70;;;12.60;;
53775;SDS011;44276;49.534;6.378;2024-01-15T03:22:43;44.10;;;13.32;;
53775;SDS011;44276;49.534;6.378;2024-01-15T03:25:11;55.25;;;14.45;;
53775;SDS011;44276;49.534;6.378;2024-01-15T03:27:40;42.30;;;13.63;;
53775;SDS011;44276;49.534;6.378;2024-01-15T03:30:10;42.28;;;11.80;;
53775;SDS011;44276;49.534;6.378;2024-01-15T03:32:40;47.22;;;15.05;;
53775;SDS011;44276;49.534;6.378;2024-01-15T03:35:09;39.75;;;13.05;;
53775;SDS011;44276;49.534;6.378;2024-01-15T03:37:37;37.53;;;12.18;;
53775;SDS011;44276;49.534;6.378;2024-01-15T03:40:06;29.40;;;11.35;;
53775;SDS011;44276;49.534;6.378;2024-01-15T03:42:36;43.90;;;11.90;;
53775;SDS011;44276;49.534;6.378;2024-01-15T03:45:04;44.08;;;15.77;;
53775;SDS011;44276;49.534;6.378;2024-01-15T03:47:35;41.92;;;12.32;;
53775;SDS011;44276;49.534;6.378;2024-01-15T03:50:03;41.45;;;13.07;;
53775;SDS011;44276;49.534;6.378;2024-01-15T03:52:32;34.75;;;10.55;;
53775;SDS011;44276;49.534;6.378;2024-01-15T03:55:01;42.63;;;12.05;;
53775;SDS011;44276;49.534;6.378;2024-01-15T03:57:29;50.03;;;13.60;;
53775;SDS011;44276;49.534;6.378;2024-01-15T03:59:58;41.17;;;13.30;;
53775;SDS011;44276;49.534;6.378;2024-01-15T04:02:26;46.22;;;14.73;;
53775;SDS011;44276;49.534;6.378;2024-01-15T04:04:56;39.78;;;13.07;;
53775;SDS011;44276;49.534;6.378;2024-01-15T04:07:24;43.38;;;13.70;;
53775;SDS011;44276;49.534;6.378;2024-01-15T04:09:52;43.42;;;11.50;;
53775;SDS011;44276;49.534;6.378;2024-01-15T04:12:21;41.97;;;13.98;;
53775;SDS011;44276;49.534;6.378;2024-01-15T04:14:49;50.63;;;14.70;;
53775;SDS011;44276;49.534;6.378;2024-01-15T04:17:17;37.03;;;13.13;;
53775;SDS011;44276;49.534;6.378;2024-01-15T04:19:48;37.50;;;11.70;;
53775;SDS011;44276;49.534;6.378;2024-01-15T04:22:17;32.88;;;11.20;;
53775;SDS011;44276;49.534;6.378;2024-01-15T04:24:46;39.05;;;11.25;;
53775;SDS011;44276;49.534;6.378;2024-01-15T04:27:14;37.67;;;11.85;;
53775;SDS011;44276;49.534;6.378;2024-01-15T04:29:43;38.70;;;12.32;;
53775;SDS011;44276;49.534;6.378;2024-01-15T04:32:11;51.35;;;14.18;;
53775;SDS011;44276;49.534;6.378;2024-01-15T04:34:40;53.20;;;14.60;;
53775;SDS011;44276;49.534;6.378;2024-01-15T04:37:08;41.38;;;14.20;;
53775;SDS011;44276;49.534;6.378;2024-01-15T04:39:38;55.75;;;15.60;;
53775;SDS011;44276;49.534;6.378;2024-01-15T04:42:07;40.53;;;14.32;;
53775;SDS011;44276;49.534;6.378;2024-01-15T04:44:35;42.85;;;13.13;;
53775;SDS011;44276;49.534;6.378;2024-01-15T04:47:03;53.83;;;15.85;;
53775;SDS011;44276;49.534;6.378;2024-01-15T04:49:32;39.15;;;14.13;;
53775;SDS011;44276;49.534;6.378;2024-01-15T04:52:00;50.35;;;17.88;;
53775;SDS011;44276;49.534;6.378;2024-01-15T04:54:29;38.78;;;14.93;;
53775;SDS011;44276;49.534;6.378;2024-01-15T04:56:58;61.80;;;16.73;;
53775;SDS011;44276;49.534;6.378;2024-01-15T04:59:27;46.95;;;13.93;;
53775;SDS011;44276;49.534;6.378;2024-01-15T05:01:55;49.33;;;14.40;;
53775;SDS011;44276;49.534;6.378;2024-01-15T05:04:24;48.92;;;15.70;;
53775;SDS011;44276;49.534;6.378;2024-01-15T05:06:52;45.95;;;18.55;;
53775;SDS011;44276;49.534;6.378;2024-01-15T05:09:21;54.90;;;15.13;;
53775;SDS011;44276;49.534;6.378;2024-01-15T05:11:49;53.65;;;15.73;;
53775;SDS011;44276;49.534;6.378;2024-01-15T05:14:19;44.22;;;13.20;;
53775;SDS011;44276;49.534;6.378;2024-01-15T05:16:47;49.03;;;15.88;;
53775;SDS011;44276;49.534;6.378;2024-01-15T05:19:17;45.33;;;13.98;;
53775;SDS011;44276;49.534;6.378;2024-01-15T05:21:46;51.97;;;16.73;;
53775;SDS011;44276;49.534;6.378;2024-01-15T05:24:15;45.40;;;13.75;;
53775;SDS011;44276;49.534;6.378;2024-01-15T05:26:43;43.03;;;14.05;;
53775;SDS011;44276;49.534;6.378;2024-01-15T05:29:12;67.10;;;15.00;;
53775;SDS011;44276;49.534;6.378;2024-01-15T05:31:41;48.63;;;13.93;;
53775;SDS011;44276;49.534;6.378;2024-01-15T05:34:10;45.92;;;13.20;;
53775;SDS011;44276;49.534;6.378;2024-01-15T05:36:38;54.78;;;15.82;;
53775;SDS011;44276;49.534;6.378;2024-01-15T05:39:07;50.88;;;16.88;;
53775;SDS011;44276;49.534;6.378;2024-01-15T05:41:35;45.65;;;15.70;;
53775;SDS011;44276;49.534;6.378;2024-01-15T05:44:04;51.45;;;15.68;;
53775;SDS011;44276;49.534;6.378;2024-01-15T05:46:32;44.72;;;15.07;;
53775;SDS011;44276;49.534;6.378;2024-01-15T05:49:02;48.53;;;15.52;;
53775;SDS011;44276;49.534;6.378;2024-01-15T05:51:30;39.42;;;16.30;;
53775;SDS011;44276;49.534;6.378;2024-01-15T05:53:59;45.55;;;15.63;;
53775;SDS011;44276;49.534;6.378;2024-01-15T05:56:27;42.25;;;15.77;;
53775;SDS011;44276;49.534;6.378;2024-01-15T05:58:55;56.08;;;19.08;;
53775;SDS011;44276;49.534;6.378;2024-01-15T06:01:24;44.17;;;15.05;;
53775;SDS011;44276;49.534;6.378;2024-01-15T06:03:52;56.55;;;16.77;;
53775;SDS011;44276;49.534;6.378;2024-01-15T06:06:22;58.33;;;14.38;;
53775;SDS011;44276;49.534;6.378;2024-01-15T06:08:51;57.42;;;15.73;;
53775;SDS011;44276;49.534;6.378;2024-01-15T06:11:19;41.70;;;16.25;;
53775;SDS011;44276;49.534;6.378;2024-01-15T06:13:48;41.05;;;14.80;;
53775;SDS011;44276;49.534;6.378;2024-01-15T06:16:16;46.58;;;15.88;;
53775;SDS011;44276;49.534;6.378;2024-01-15T06:18:46;43.55;;;13.10;;
53775;SDS011;44276;49.534;6.378;2024-01-15T06:21:14;49.45;;;16.52;;
53775;SDS011;44276;49.534;6.378;2024-01-15T06:23:44;64.28;;;17.17;;
53775;SDS011;44276;49.534;6.378;2024-01-15T06:26:13;53.15;;;15.35;;
53775;SDS011;44276;49.534;6.378;2024-01-15T06:28:41;47.20;;;14.82;;
53775;SDS011;44276;49.534;6.378;2024-01-15T06:31:09;44.63;;;13.50;;
53775;SDS011;44276;49.534;6.378;2024-01-15T06:33:38;44.20;;;15.00;;
53775;SDS011;44276;49.534;6.378;2024-01-15T06:36:07;50.08;;;16.83;;
53775;SDS011;44276;49.534;6.378;2024-01-15T06:38:37;33.72;;;15.98;;
53775;SDS011;44276;49.534;6.378;2024-01-15T06:41:06;50.40;;;14.48;;
53775;SDS011;44276;49.534;6.378;2024-01-15T06:43:35;62.83;;;16.13;;
53775;SDS011;44276;49.534;6.378;2024-01-15T06:46:06;45.95;;;14.57;;
53775;SDS011;44276;49.534;6.378;2024-01-15T06:48:41;40.85;;;13.55;;
53775;SDS011;44276;49.534;6.378;2024-01-15T06:51:17;49.53;;;18.05;;
53775;SDS011;44276;49.534;6.378;2024-01-15T06:53:47;49.05;;;16.33;;
53775;SDS011;44276;49.534;6.378;2024-01-15T06:56:18;38.72;;;13.93;;
53775;SDS011;44276;49.534;6.378;2024-01-15T06:58:49;46.33;;;12.77;;
53775;SDS011;44276;49.534;6.378;2024-01-15T07:01:20;58.40;;;17.35;;
53775;SDS011;44276;49.534;6.378;2024-01-15T07:03:52;43.97;;;14.02;;
53775;SDS011;44276;49.534;6.378;2024-01-15T07:06:20;59.22;;;17.45;;
53775;SDS011;44276;49.534;6.378;2024-01-15T07:08:52;44.22;;;15.23;;
53775;SDS011;44276;49.534;6.378;2024-01-15T07:11:31;48.05;;;13.70;;
53775;SDS011;44276;49.534;6.378;2024-01-15T07:16:42;53.40;;;15.40;;
53775;SDS011;44276;49.534;6.378;2024-01-15T07:19:14;41.55;;;13.48;;
53775;SDS011;44276;49.534;6.378;2024-01-15T07:21:42;47.65;;;15.73;;
53775;SDS011;44276;49.534;6.378;2024-01-15T07:24:11;37.10;;;11.85;;
53775;SDS011;44276;49.534;6.378;2024-01-15T07:26:40;52.28;;;16.35;;
53775;SDS011;44276;49.534;6.378;2024-01-15T07:29:09;50.65;;;16.42;;
53775;SDS011;44276;49.534;6.378;2024-01-15T07:31:37;50.78;;;17.13;;
53775;SDS011;44276;49.534;6.378;2024-01-15T07:34:06;47.25;;;15.05;;
53775;SDS011;44276;49.534;6.378;2024-01-15T07:36:35;40.45;;;14.98;;
53775;SDS011;44276;49.534;6.378;2024-01-15T07:39:03;53.78;;;15.75;;
53775;SDS011;44276;49.534;6.378;2024-01-15T07:41:32;65.50;;;20.88;;
53775;SDS011;44276;49.534;6.378;2024-01-15T07:44:02;52.97;;;14.82;;
53775;SDS011;44276;49.534;6.378;2024-01-15T07:46:31;39.40;;;13.45;;
53775;SDS011;44276;49.534;6.378;2024-01-15T07:48:59;47.67;;;17.92;;
53775;SDS011;44276;49.534;6.378;2024-01-15T07:51:27;57.72;;;18.35;;
53775;SDS011;44276;49.534;6.378;2024-01-15T07:53:56;40.42;;;13.85;;
53775;SDS011;44276;49.534;6.378;2024-01-15T07:56:24;42.72;;;14.43;;
53775;SDS011;44276;49.534;6.378;2024-01-15T07:58:53;47.03;;;16.27;;
53775;SDS011;44276;49.534;6.378;2024-01-15T08:01:23;47.90;;;16.30;;
53775;SDS011;44276;49.534;6.378;2024-01-15T08:03:52;44.38;;;14.35;;
53775;SDS011;44276;49.534;6.378;2024-01-15T08:06:21;37.67;;;14.68;;
53775;SDS011;44276;49.534;6.378;2024-01-15T08:08:50;35.28;;;13.20;;
53775;SDS011;44276;49.534;6.378;2024-01-15T08:11:19;57.10;;;16.75;;
53775;SDS011;44276;49.534;6.378;2024-01-15T08:13:47;48.42;;;18.13;;
53775;SDS011;44276;49.534;6.378;2024-01-15T08:16:15;49.28;;;16.98;;
53775;SDS011;44276;49.534;6.378;2024-01-15T08:18:45;51.05;;;13.90;;
53775;SDS011;44276;49.534;6.378;2024-01-15T08:21:14;54.42;;;17.15;;
53775;SDS011;44276;49.534;6.378;2024-01-15T08:23:43;51.25;;;18.80;;
53775;SDS011;44276;49.534;6.378;2024-01-15T08:26:11;49.92;;;17.05;;
53775;SDS011;44276;49.534;6.378;2024-01-15T08:28:39;58.88;;;19.27;;
53775;SDS011;44276;49.534;6.378;2024-01-15T08:31:08;57.08;;;16.55;;
53775;SDS011;44276;49.534;6.378;2024-01-15T08:33:37;57.88;;;19.65;;
53775;SDS011;44276;49.534;6.378;2024-01-15T08:36:07;51.92;;;17.88;;
53775;SDS011;44276;49.534;6.378;2024-01-15T08:38:36;53.15;;;18.02;;
53775;SDS011;44276;49.534;6.378;2024-01-15T08:41:05;61.83;;;21.63;;
53775;SDS011;44276;49.534;6.378;2024-01-15T08:43:34;53.15;;;19.95;;
53775;SDS011;44276;49.534;6.378;2024-01-15T08:46:03;90.47;;;33.22;;
53775;SDS011;44276;49.534;6.378;2024-01-15T08:48:31;55.33;;;17.80;;
53775;SDS011;44276;49.534;6.378;2024-01-15T08:50:59;49.40;;;14.32;;
53775;SDS011;44276;49.534;6.378;2024-01-15T08:53:29;37.53;;;14.55;;
53775;SDS011;44276;49.534;6.378;2024-01-15T08:55:58;41.17;;;13.48;;
53775;SDS011;44276;49.534;6.378;2024-01-15T08:58:26;41.95;;;14.23;;
53775;SDS011;44276;49.534;6.378;2024-01-15T09:00:55;41.75;;;13.82;;
53775;SDS011;44276;49.534;6.378;2024-01-15T09:03:23;35.58;;;12.13;;
53775;SDS011;44276;49.534;6.378;2024-01-15T09:05:52;49.97;;;14.50;;
53775;SDS011;44276;49.534;6.378;2024-01-15T09:08:21;26.45;;;12.43;;
53775;SDS011;44276;49.534;6.378;2024-01-15T09:10:50;31.00;;;12.18;;
53775;SDS011;44276;49.534;6.378;2024-01-15T09:13:18;38.10;;;13.30;;
53775;SDS011;44276;49.534;6.378;2024-01-15T09:15:48;33.60;;;12.40;;
53775;SDS011;44276;49.534;6.378;2024-01-15T09:18:16;31.52;;;10.10;;
53775;SDS011;44276;49.534;6.378;2024-01-15T09:20:45;34.75;;;12.35;;
53775;SDS011;44276;49.534;6.378;2024-01-15T09:23:13;30.65;;;11.82;;
53775;SDS011;44276;49.534;6.378;2024-01-15T09:25:41;31.17;;;10.18;;
53775;SDS011;44276;49.534;6.378;2024-01-15T09:28:11;35.20;;;10.57;;
53775;SDS011;44276;49.534;6.378;2024-01-15T09:30:40;29.90;;;10.60;;
53775;SDS011;44276;49.534;6.378;2024-01-15T09:33:08;36.13;;;11.55;;
53775;SDS011;44276;49.534;6.378;2024-01-15T09:35:37;25.70;;;11.00;;
53775;SDS011;44276;49.534;6.378;2024-01-15T09:38:05;28.13;;;10.63;;
53775;SDS011;44276;49.534;6.378;2024-01-15T09:40:33;25.92;;;9.77;;
53775;SDS011;44276;49.534;6.378;2024-01-15T09:43:06;30.80;;;10.75;;
53775;SDS011;44276;49.534;6.378;2024-01-15T09:45:35;24.17;;;11.25;;
53775;SDS011;44276;49.534;6.378;2024-01-15T09:48:04;29.90;;;9.82;;
53775;SDS011;44276;49.534;6.378;2024-01-15T09:50:33;26.85;;;8.35;;
53775;SDS011;44276;49.534;6.378;2024-01-15T09:53:03;29.92;;;12.85;;
53775;SDS011;44276;49.534;6.378;2024-01-15T09:55:33;38.38;;;14.10;;
53775;SDS011;44276;49.534;6.378;2024-01-15T09:58:02;27.33;;;12.07;;
53775;SDS011;44276;49.534;6.378;2024-01-15T10:00:31;27.95;;;9.48;;
53775;SDS011;44276;49.534;6.378;2024-01-15T10:03:05;31.25;;;10.02;;
53775;SDS011;44276;49.534;6.378;2024-01-15T10:05:37;34.55;;;10.18;;
53775;SDS011;44276;49.534;6.378;2024-01-15T10:08:05;26.90;;;9.25;;
53775;SDS011;44276;49.534;6.378;2024-01-15T10:10:35;24.08;;;10.32;;
53775;SDS011;44276;49.534;6.378;2024-01-15T10:13:04;23.40;;;9.63;;
53775;SDS011;44276;49.534;6.378;2024-01-15T10:15:33;26.85;;;9.30;;
53775;SDS011;44276;49.534;6.378;2024-01-15T10:18:05;22.92;;;8.85;;
53775;SDS011;44276;49.534;6.378;2024-01-15T10:20:33;27.08;;;8.00;;
53775;SDS011;44276;49.534;6.378;2024-01-15T10:23:01;16.85;;;7.03;;
53775;SDS011;44276;49.534;6.378;2024-01-15T10:25:31;18.77;;;8.68;;
53775;SDS011;44276;49.534;6.378;2024-01-15T10:28:00;18.92;;;8.18;;
53775;SDS011;44276;49.534;6.378;2024-01-15T10:30:31;22.98;;;8.02;;
53775;SDS011;44276;49.534;6.378;2024-01-15T10:33:01;21.30;;;8.85;;
53775;SDS011;44276;49.534;6.378;2024-01-15T10:35:34;17.50;;;7.78;;
53775;SDS011;44276;49.534;6.378;2024-01-15T10:38:02;19.95;;;7.40;;
53775;SDS011;44276;49.534;6.378;2024-01-15T10:40:33;15.95;;;6.82;;
53775;SDS011;44276;49.534;6.378;2024-01-15T10:43:02;19.30;;;9.75;;
53775;SDS011;44276;49.534;6.378;2024-01-15T10:45:31;19.00;;;8.18;;
53775;SDS011;44276;49.534;6.378;2024-01-15T10:47:59;14.52;;;6.78;;
53775;SDS011;44276;49.534;6.378;2024-01-15T10:50:29;15.75;;;7.78;;
53775;SDS011;44276;49.534;6.378;2024-01-15T10:53:00;13.98;;;7.10;;
53775;SDS011;44276;49.534;6.378;2024-01-15T10:55:30;15.15;;;6.55;;
53775;SDS011;44276;49.534;6.378;2024-01-15T10:58:02;12.30;;;6.78;;
53775;SDS011;44276;49.534;6.378;2024-01-15T11:00:31;11.02;;;6.03;;
53775;SDS011;44276;49.534;6.378;2024-01-15T11:03:00;17.23;;;7.50;;
53775;SDS011;44276;49.534;6.378;2024-01-15T11:05:34;13.68;;;6.95;;
53775;SDS011;44276;49.534;6.378;2024-01-15T11:08:06;15.02;;;6.85;;
53775;SDS011;44276;49.534;6.378;2024-01-15T11:10:38;17.90;;;7.43;;
53775;SDS011;44276;49.534;6.378;2024-01-15T11:13:09;24.27;;;9.38;;
53775;SDS011;44276;49.534;6.378;2024-01-15T11:15:57;18.67;;;7.68;;
53775;SDS011;44276;49.534;6.378;2024-01-15T11:18:28;19.33;;;8.73;;
53775;SDS011;44276;49.534;6.378;2024-01-15T11:23:57;18.58;;;9.07;;
53775;SDS011;44276;49.534;6.378;2024-01-15T11:26:31;16.08;;;7.13;;
53775;SDS011;44276;49.534;6.378;2024-01-15T11:29:05;17.75;;;6.30;;
53775;SDS011;44276;49.534;6.378;2024-01-15T11:37:26;14.95;;;7.18;;
53775;SDS011;44276;49.534;6.378;2024-01-15T11:40:00;22.40;;;8.40;;
53775;SDS011;44276;49.534;6.378;2024-01-15T11:42:31;22.30;;;9.45;;
53775;SDS011;44276;49.534;6.378;2024-01-15T11:44:59;17.30;;;8.40;;
53775;SDS011;44276;49.534;6.378;2024-01-15T11:47:44;19.40;;;7.85;;
53775;SDS011;44276;49.534;6.378;2024-01-15T11:50:40;13.63;;;6.75;;
53775;SDS011;44276;49.534;6.378;2024-01-15T11:56:02;17.65;;;7.55;;
53775;SDS011;44276;49.534;6.378;2024-01-15T11:58:38;13.05;;;5.70;;
53775;SDS011;44276;49.534;6.378;2024-01-15T12:01:06;12.82;;;7.47;;
53775;SDS011;44276;49.534;6.378;2024-01-15T12:03:34;11.57;;;5.70;;
53775;SDS011;44276;49.534;6.378;2024-01-15T12:06:05;17.23;;;5.88;;
53775;SDS011;44276;49.534;6.378;2024-01-15T12:08:35;15.77;;;5.97;;
53775;SDS011;44276;49.534;6.378;2024-01-15T12:11:05;13.93;;;6.47;;
53775;SDS011;44276;49.534;6.378;2024-01-15T12:16:09;15.10;;;7.57;;
53775;SDS011;44276;49.534;6.378;2024-01-15T12:18:38;10.55;;;5.53;;
53775;SDS011;44276;49.534;6.378;2024-01-15T12:21:06;13.27;;;5.93;;
53775;SDS011;44276;49.534;6.378;2024-01-15T12:23:36;14.32;;;4.57;;
53775;SDS011;44276;49.534;6.378;2024-01-15T12:26:05;9.20;;;5.18;;
53775;SDS011;44276;49.534;6.378;2024-01-15T12:28:34;15.40;;;6.13;;
53775;SDS011;44276;49.534;6.378;2024-01-15T12:31:05;10.95;;;4.90;;
53775;SDS011;44276;49.534;6.378;2024-01-15T12:33:35;10.82;;;5.47;;
53775;SDS011;44276;49.534;6.378;2024-01-15T12:36:03;11.38;;;5.57;;
53775;SDS011;44276;49.534;6.378;2024-01-15T12:38:32;12.50;;;6.60;;
53775;SDS011;44276;49.534;6.378;2024-01-15T12:41:02;12.75;;;6.03;;
53775;SDS011;44276;49.534;6.378;2024-01-15T12:43:31;11.85;;;5.22;;
53775;SDS011;44276;49.534;6.378;2024-01-15T12:46:00;9.82;;;5.20;;
53775;SDS011;44276;49.534;6.378;2024-01-15T12:48:28;15.32;;;5.78;;
53775;SDS011;44276;49.534;6.378;2024-01-15T12:50:57;15.60;;;6.90;;
53775;SDS011;44276;49.534;6.378;2024-01-15T12:53:25;13.77;;;5.90;;
53775;SDS011;44276;49.534;6.378;2024-01-15T12:55:53;13.38;;;6.05;;
53775;SDS011;44276;49.534;6.378;2024-01-15T12:58:23;14.18;;;6.35;;
53775;SDS011;44276;49.534;6.378;2024-01-15T13:00:51;13.60;;;5.55;;
53775;SDS011;44276;49.534;6.378;2024-01-15T13:03:20;12.70;;;5.20;;
53775;SDS011;44276;49.534;6.378;2024-01-15T13:05:49;9.95;;;5.10;;
53775;SDS011;44276;49.534;6.378;2024-01-15T13:08:19;11.50;;;5.20;;
53775;SDS011;44276;49.534;6.378;2024-01-15T13:10:50;8.57;;;4.88;;
53775;SDS011;44276;49.534;6.378;2024-01-15T13:13:19;13.48;;;6.00;;
53775;SDS011;44276;49.534;6.378;2024-01-15T13:15:48;12.52;;;6.80;;
53775;SDS011;44276;49.534;6.378;2024-01-15T13:18:17;11.43;;;4.60;;
53775;SDS011;44276;49.534;6.378;2024-01-15T13:20:45;11.88;;;4.72;;
53775;SDS011;44276;49.534;6.378;2024-01-15T13:23:13;7.95;;;4.93;;
53775;SDS011;44276;49.534;6.378;2024-01-15T13:25:42;9.77;;;4.05;;
53775;SDS011;44276;49.534;6.378;2024-01-15T13:28:11;11.40;;;4.85;;
53775;SDS011;44276;49.534;6.378;2024-01-15T13:30:39;9.23;;;3.90;;
53775;SDS011;44276;49.534;6.378;2024-01-15T13:33:10;7.65;;;3.80;;
53775;SDS011;44276;49.534;6.378;2024-01-15T13:35:38;4.57;;;2.28;;
53775;SDS011;44276;49.534;6.378;2024-01-15T13:38:06;9.93;;;3.50;;
53775;SDS011;44276;49.534;6.378;2024-01-15T13:40:35;7.43;;;3.47;;
53775;SDS011;44276;49.534;6.378;2024-01-15T13:43:03;7.50;;;3.78;;
53775;SDS011;44276;49.534;6.378;2024-01-15T13:45:34;7.85;;;3.25;;
53775;SDS011;44276;49.534;6.378;2024-01-15T13:48:04;10.70;;;3.72;;
53775;SDS011;44276;49.534;6.378;2024-01-15T13:50:36;5.63;;;3.20;;
53775;SDS011;44276;49.534;6.378;2024-01-15T13:53:04;10.18;;;3.25;;
53775;SDS011;44276;49.534;6.378;2024-01-15T13:55:32;5.45;;;2.92;;
53775;SDS011;44276;49.534;6.378;2024-01-15T13:58:01;8.30;;;3.15;;
53775;SDS011;44276;49.534;6.378;2024-01-15T14:00:32;4.93;;;2.70;;
53775;SDS011;44276;49.534;6.378;2024-01-15T14:03:01;5.88;;;2.65;;
53775;SDS011;44276;49.534;6.378;2024-01-15T14:05:29;3.85;;;1.45;;
53775;SDS011;44276;49.534;6.378;2024-01-15T14:07:59;4.45;;;2.17;;
53775;SDS011;44276;49.534;6.378;2024-01-15T14:10:27;5.55;;;1.92;;
53775;SDS011;44276;49.534;6.378;2024-01-15T14:12:56;3.40;;;2.45;;
53775;SDS011;44276;49.534;6.378;2024-01-15T14:15:24;4.90;;;2.40;;
53775;SDS011;44276;49.534;6.378;2024-01-15T14:17:53;1.40;;;0.95;;
53775;SDS011;44276;49.534;6.378;2024-01-15T14:20:22;7.00;;;2.03;;
53775;SDS011;44276;49.534;6.378;2024-01-15T14:22:50;5.93;;;2.10;;
53775;SDS011;44276;49.534;6.378;2024-01-15T14:25:20;6.00;;;1.95;;
53775;SDS011;44276;49.534;6.378;2024-01-15T14:27:50;3.15;;;1.67;;
53775;SDS011;44276;49.534;6.378;2024-01-15T14:30:19;6.50;;;2.40;;
53775;SDS011;44276;49.534;6.378;2024-01-15T14:32:47;7.55;;;2.28;;
53775;SDS011;44276;49.534;6.378;2024-01-15T14:35:15;3.88;;;1.55;;
53775;SDS011;44276;49.534;6.378;2024-01-15T14:37:43;8.30;;;2.28;;
53775;SDS011;44276;49.534;6.378;2024-01-15T14:40:12;4.78;;;2.30;;
53775;SDS011;44276;49.534;6.378;2024-01-15T14:42:44;3.13;;;1.15;;
53775;SDS011;44276;49.534;6.378;2024-01-15T14:45:13;2.95;;;1.40;;
53775;SDS011;44276;49.534;6.378;2024-01-15T14:47:41;3.22;;;1.65;;
53775;SDS011;44276;49.534;6.378;2024-01-15T14:50:10;1.52;;;1.13;;
53775;SDS011;44276;49.534;6.378;2024-01-15T14:52:39;6.93;;;2.40;;
53775;SDS011;44276;49.534;6.378;2024-01-15T14:55:09;7.45;;;1.92;;
53775;SDS011;44276;49.534;6.378;2024-01-15T14:57:37;6.03;;;1.85;;
53775;SDS011;44276;49.534;6.378;2024-01-15T15:00:08;2.70;;;1.52;;